Time;durP1;ratioP1;P1;durP2;ratioP2;P2;SDS_P1;SDS_P2;PMS_P1;PMS_P2;Temp;Humidity;BMP_temperature;BMP_pressure;BME280_temperature;BME280_humidity;BME280_pressure;Samples;Min_cycle;Max_cycle;Signal;HPM_P1;HPM_P2
2022/05/28 00:02:16;;;;;;;9.98;3.03;;;;;;;;;;4987625;28;20018;-70
2022/05/28 00:04:43;;;;;;;9.75;2.85;;;;;;;;;;4993644;28;20165;-68
2022/05/28 00:07:08;;;;;;;10.55;3.38;;;;;;;;;;4993148;28;20699;-69
2022/05/28 00:09:34;;;;;;;11.13;3.47;;;;;;;;;;4991073;28;20123;-69
2022/05/28 00:11:59;;;;;;;9.77;3.15;;;;;;;;;;4991185;28;20344;-68
2022/05/28 00:14:25;;;;;;;12.25;3.20;;;;;;;;;;4997759;28;20029;-68
2022/05/28 00:16:50;;;;;;;12.85;3.70;;;;;;;;;;5000489;28;20029;-69
2022/05/28 00:19:16;;;;;;;11.65;3.88;;;;;;;;;;4986330;28;20038;-70
2022/05/28 00:21:42;;;;;;;8.77;3.25;;;;;;;;;;4987233;28;20449;-69
2022/05/28 00:24:07;;;;;;;7.93;3.33;;;;;;;;;;4988458;28;20065;-71
2022/05/28 00:26:33;;;;;;;9.48;3.40;;;;;;;;;;4988133;28;20026;-69
2022/05/28 00:28:58;;;;;;;10.85;3.00;;;;;;;;;;4997094;28;20033;-68
2022/05/28 00:31:23;;;;;;;7.90;3.22;;;;;;;;;;5000985;28;20085;-69
2022/05/28 00:33:49;;;;;;;9.00;3.05;;;;;;;;;;4993422;28;20030;-68
2022/05/28 00:36:15;;;;;;;6.72;2.50;;;;;;;;;;4991906;28;20025;-69
2022/05/28 00:38:43;;;;;;;9.27;3.33;;;;;;;;;;4989492;28;20030;-70
2022/05/28 00:41:09;;;;;;;9.35;3.47;;;;;;;;;;4986992;28;20434;-68
2022/05/28 00:43:36;;;;;;;7.05;2.67;;;;;;;;;;4985655;28;20045;-69
2022/05/28 00:46:22;;;;;;;12.20;3.10;;;;;;;;;;4985504;28;20026;-69
2022/05/28 00:48:49;;;;;;;12.55;3.35;;;;;;;;;;4987999;28;20068;-69
2022/05/28 00:51:20;;;;;;;12.90;3.00;;;;;;;;;;4998069;28;20061;-71
2022/05/28 00:53:46;;;;;;;10.70;3.33;;;;;;;;;;4986167;28;20036;-69
2022/05/28 00:56:11;;;;;;;8.38;3.30;;;;;;;;;;4988543;28;20045;-71
2022/05/28 00:58:37;;;;;;;9.23;3.03;;;;;;;;;;4987490;28;20041;-70
2022/05/28 01:01:04;;;;;;;14.90;3.60;;;;;;;;;;4989140;28;20030;-70
2022/05/28 01:03:34;;;;;;;12.27;3.15;;;;;;;;;;4993461;28;20021;-69
2022/05/28 01:06:10;;;;;;;7.22;2.65;;;;;;;;;;4994459;28;20360;-69
2022/05/28 01:08:38;;;;;;;10.07;3.20;;;;;;;;;;4987587;28;20092;-68
2022/05/28 01:11:22;;;;;;;14.30;3.38;;;;;;;;;;4999644;28;20084;-69
2022/05/28 01:13:50;;;;;;;9.80;2.72;;;;;;;;;;4997185;28;20033;-69
2022/05/28 01:16:22;;;;;;;9.40;3.00;;;;;;;;;;4992192;28;20087;-69
2022/05/28 01:18:54;;;;;;;10.52;2.88;;;;;;;;;;4999580;28;20813;-69
2022/05/28 01:21:24;;;;;;;11.35;3.58;;;;;;;;;;4995692;28;20033;-70
2022/05/28 01:23:53;;;;;;;6.53;2.20;;;;;;;;;;4979159;28;20029;-70
2022/05/28 01:26:24;;;;;;;9.63;3.10;;;;;;;;;;4980063;28;20441;-69
2022/05/28 01:28:55;;;;;;;8.82;2.92;;;;;;;;;;4998617;28;21159;-70
2022/05/28 01:31:20;;;;;;;11.80;2.90;;;;;;;;;;4993105;28;20034;-69
2022/05/28 01:33:46;;;;;;;10.80;3.17;;;;;;;;;;4994004;28;20459;-69
2022/05/28 01:36:14;;;;;;;8.52;2.92;;;;;;;;;;4999535;28;20029;-70
2022/05/28 01:38:40;;;;;;;15.77;3.28;;;;;;;;;;4989346;28;20057;-70
2022/05/28 01:41:06;;;;;;;10.75;2.75;;;;;;;;;;4995277;28;20446;-69
2022/05/28 01:43:33;;;;;;;6.95;2.72;;;;;;;;;;4990609;28;20038;-71
2022/05/28 01:45:59;;;;;;;10.45;2.63;;;;;;;;;;4998906;28;20037;-70
2022/05/28 01:48:25;;;;;;;8.40;3.17;;;;;;;;;;4992277;28;20041;-70
2022/05/28 01:50:52;;;;;;;8.85;2.90;;;;;;;;;;4988286;28;20056;-70
2022/05/28 01:56:03;;;;;;;7.90;2.40;;;;;;;;;;4998865;28;20496;-71
2022/05/28 01:58:29;;;;;;;10.60;2.85;;;;;;;;;;5005085;28;20045;-71
2022/05/28 02:00:55;;;;;;;11.07;4.25;;;;;;;;;;5013317;28;20112;-70
2022/05/28 02:03:20;;;;;;;13.50;3.88;;;;;;;;;;5003333;28;20030;-71
2022/05/28 02:05:46;;;;;;;14.10;4.60;;;;;;;;;;5017009;28;20376;-71
2022/05/28 02:08:11;;;;;;;12.15;4.07;;;;;;;;;;5005129;28;20091;-72
2022/05/28 02:10:39;;;;;;;11.80;3.70;;;;;;;;;;5015716;28;20030;-71
2022/05/28 02:13:15;;;;;;;11.40;3.30;;;;;;;;;;5016312;28;20041;-71
2022/05/28 02:15:41;;;;;;;12.05;4.20;;;;;;;;;;5005167;28;20055;-70
2022/05/28 02:18:27;;;;;;;11.88;3.60;;;;;;;;;;5015291;28;20455;-70
2022/05/28 02:20:52;;;;;;;8.00;3.50;;;;;;;;;;5008308;28;20013;-69
2022/05/28 02:23:24;;;;;;;12.45;4.00;;;;;;;;;;4990005;28;20031;-69
2022/05/28 02:25:55;;;;;;;11.23;4.13;;;;;;;;;;4997271;28;20025;-69
2022/05/28 02:28:23;;;;;;;10.52;3.10;;;;;;;;;;5012884;28;20033;-69
2022/05/28 02:30:53;;;;;;;10.75;3.50;;;;;;;;;;5009588;28;20051;-71
2022/05/28 02:33:19;;;;;;;8.95;3.67;;;;;;;;;;5007826;28;20129;-72
2022/05/28 02:35:44;;;;;;;8.23;3.25;;;;;;;;;;4999535;28;20036;-71
2022/05/28 02:38:10;;;;;;;11.35;3.30;;;;;;;;;;5002773;28;20447;-69
2022/05/28 02:40:36;;;;;;;9.18;3.28;;;;;;;;;;4975020;28;20025;-70
2022/05/28 02:43:01;;;;;;;7.38;3.30;;;;;;;;;;5009144;28;20086;-70
2022/05/28 02:45:27;;;;;;;8.80;3.25;;;;;;;;;;4980335;28;20137;-70
2022/05/28 02:47:52;;;;;;;7.28;2.88;;;;;;;;;;4992127;28;20063;-70
2022/05/28 02:50:17;;;;;;;7.90;3.25;;;;;;;;;;4997144;28;20022;-70
2022/05/28 02:52:43;;;;;;;8.93;3.20;;;;;;;;;;4998900;28;20029;-70
2022/05/28 02:55:09;;;;;;;10.05;3.55;;;;;;;;;;5003603;28;20041;-71
2022/05/28 02:57:35;;;;;;;10.82;3.70;;;;;;;;;;5002287;28;20036;-71
2022/05/28 03:00:00;;;;;;;10.93;3.33;;;;;;;;;;5014088;28;20029;-70
2022/05/28 03:02:28;;;;;;;10.10;3.15;;;;;;;;;;5010523;28;20441;-70
2022/05/28 03:04:54;;;;;;;5.22;2.65;;;;;;;;;;5002645;28;20032;-70
2022/05/28 03:07:19;;;;;;;6.18;2.80;;;;;;;;;;5012723;28;20022;-69
2022/05/28 03:09:45;;;;;;;9.48;3.13;;;;;;;;;;5015239;28;20057;-69
2022/05/28 03:12:10;;;;;;;7.57;3.80;;;;;;;;;;5015268;28;20936;-68
2022/05/28 03:14:36;;;;;;;9.25;3.22;;;;;;;;;;5005554;28;20057;-70
2022/05/28 03:17:02;;;;;;;10.68;3.45;;;;;;;;;;5001957;28;20029;-69
2022/05/28 03:19:27;;;;;;;7.97;2.78;;;;;;;;;;5002579;28;20039;-70
2022/05/28 03:21:52;;;;;;;9.25;2.67;;;;;;;;;;5010901;28;20429;-70
2022/05/28 03:24:18;;;;;;;8.80;3.33;;;;;;;;;;5014877;28;20025;-71
2022/05/28 03:26:43;;;;;;;9.02;3.45;;;;;;;;;;5012413;28;20060;-71
2022/05/28 03:29:08;;;;;;;12.60;3.60;;;;;;;;;;4996679;28;20473;-70
2022/05/28 03:31:34;;;;;;;9.50;3.20;;;;;;;;;;5007413;28;20037;-69
2022/05/28 03:33:59;;;;;;;8.18;2.80;;;;;;;;;;5006227;28;20029;-70
2022/05/28 03:36:25;;;;;;;10.75;3.00;;;;;;;;;;5007339;28;20040;-70
2022/05/28 03:38:51;;;;;;;7.88;3.10;;;;;;;;;;5005352;28;20091;-71
2022/05/28 03:41:17;;;;;;;8.30;2.70;;;;;;;;;;5005786;28;20029;-70
2022/05/28 03:43:42;;;;;;;6.45;2.92;;;;;;;;;;5010523;28;20081;-71
2022/05/28 03:46:27;;;;;;;9.30;3.45;;;;;;;;;;5016150;28;20557;-72
2022/05/28 03:48:55;;;;;;;9.13;3.03;;;;;;;;;;5003019;28;20040;-70
2022/05/28 03:51:20;;;;;;;9.85;2.97;;;;;;;;;;5003243;28;20040;-69
2022/05/28 03:53:46;;;;;;;7.65;2.88;;;;;;;;;;5010047;28;20360;-70
2022/05/28 03:56:11;;;;;;;8.57;2.85;;;;;;;;;;4995921;28;21070;-69
2022/05/28 03:58:36;;;;;;;8.77;2.60;;;;;;;;;;4993647;28;20103;-68
2022/05/28 04:01:02;;;;;;;8.35;2.40;;;;;;;;;;5014220;28;20036;-72
2022/05/28 04:03:28;;;;;;;5.43;2.85;;;;;;;;;;4983203;28;20026;-67
2022/05/28 04:05:54;;;;;;;8.98;2.78;;;;;;;;;;5015103;28;20032;-68
2022/05/28 04:08:19;;;;;;;7.80;3.28;;;;;;;;;;5014866;28;20042;-67
2022/05/28 04:10:44;;;;;;;16.00;3.20;;;;;;;;;;5005677;28;20097;-68
2022/05/28 04:13:10;;;;;;;8.80;3.10;;;;;;;;;;4988956;28;20026;-69
2022/05/28 04:15:35;;;;;;;6.32;3.05;;;;;;;;;;4988430;28;20028;-71
2022/05/28 04:18:00;;;;;;;7.15;2.80;;;;;;;;;;4995665;28;20153;-71
2022/05/28 04:20:26;;;;;;;6.90;2.45;;;;;;;;;;4990012;28;20061;-70
2022/05/28 04:22:51;;;;;;;6.88;2.65;;;;;;;;;;4994976;28;20441;-70
2022/05/28 04:25:16;;;;;;;9.68;2.65;;;;;;;;;;4986381;28;20078;-69
2022/05/28 04:27:42;;;;;;;6.60;2.60;;;;;;;;;;5007332;28;20021;-69
2022/05/28 04:30:08;;;;;;;6.05;2.75;;;;;;;;;;4990730;28;20026;-69
2022/05/28 04:32:33;;;;;;;7.25;2.88;;;;;;;;;;4972134;28;20037;-69
2022/05/28 04:34:58;;;;;;;6.50;2.60;;;;;;;;;;4987708;28;20176;-71
2022/05/28 04:37:23;;;;;;;8.10;2.53;;;;;;;;;;4974071;28;20040;-69
2022/05/28 04:39:49;;;;;;;6.20;2.72;;;;;;;;;;4988600;28;20128;-71
2022/05/28 04:42:14;;;;;;;6.72;2.60;;;;;;;;;;4988668;28;20060;-71
2022/05/28 04:44:39;;;;;;;8.57;3.30;;;;;;;;;;4999426;28;20104;-70
2022/05/28 04:47:05;;;;;;;9.00;3.28;;;;;;;;;;5012428;28;20136;-69
2022/05/28 04:49:30;;;;;;;7.10;2.33;;;;;;;;;;4998674;28;20029;-70
2022/05/28 04:51:55;;;;;;;7.18;2.40;;;;;;;;;;4966578;28;20093;-71
2022/05/28 04:54:21;;;;;;;6.95;2.30;;;;;;;;;;4962072;28;20030;-69
2022/05/28 04:56:46;;;;;;;9.32;2.70;;;;;;;;;;4986272;28;20119;-70
2022/05/28 04:59:12;;;;;;;4.38;2.33;;;;;;;;;;4963888;28;20438;-70
2022/05/28 05:01:37;;;;;;;7.32;2.70;;;;;;;;;;4964158;28;20030;-71
2022/05/28 05:04:03;;;;;;;5.80;2.80;;;;;;;;;;4967643;28;20026;-69
2022/05/28 05:06:28;;;;;;;5.32;2.45;;;;;;;;;;4974425;28;20021;-70
2022/05/28 05:08:53;;;;;;;6.55;2.22;;;;;;;;;;4972857;28;20042;-71
2022/05/28 05:11:19;;;;;;;8.10;2.30;;;;;;;;;;4971720;28;20100;-70
2022/05/28 05:13:44;;;;;;;7.38;2.83;;;;;;;;;;5014343;28;20042;-70
2022/05/28 05:16:10;;;;;;;9.30;2.72;;;;;;;;;;5014018;28;20410;-69
2022/05/28 05:18:35;;;;;;;7.78;2.55;;;;;;;;;;5012929;28;20025;-70
2022/05/28 05:21:01;;;;;;;6.15;2.30;;;;;;;;;;5005255;28;20022;-71
2022/05/28 05:23:26;;;;;;;5.53;2.42;;;;;;;;;;5005905;28;20021;-70
2022/05/28 05:25:51;;;;;;;5.85;2.50;;;;;;;;;;5001337;28;20322;-71
2022/05/28 05:28:17;;;;;;;5.00;2.58;;;;;;;;;;4999471;28;20462;-71
2022/05/28 05:30:42;;;;;;;10.77;2.65;;;;;;;;;;5003839;28;21088;-75
2022/05/28 05:33:07;;;;;;;8.68;2.47;;;;;;;;;;4989797;28;20042;-74
2022/05/28 05:35:33;;;;;;;7.28;2.80;;;;;;;;;;5013104;28;20433;-71
2022/05/28 05:38:05;;;;;;;6.25;2.80;;;;;;;;;;5006307;28;20026;-74
2022/05/28 05:40:30;;;;;;;2.78;2.08;;;;;;;;;;5001569;28;20037;-71
2022/05/28 05:42:58;;;;;;;8.30;2.90;;;;;;;;;;4998352;28;20021;-73
2022/05/28 05:45:23;;;;;;;8.98;3.22;;;;;;;;;;5000820;28;20144;-73
2022/05/28 05:47:49;;;;;;;7.78;3.13;;;;;;;;;;4984420;28;20202;-73
2022/05/28 05:50:14;;;;;;;9.48;2.70;;;;;;;;;;5001458;28;20463;-74
2022/05/28 05:52:40;;;;;;;5.57;2.72;;;;;;;;;;5001076;28;21056;-73
2022/05/28 05:55:06;;;;;;;7.68;2.83;;;;;;;;;;5003692;28;20033;-71
2022/05/28 05:57:31;;;;;;;10.30;2.63;;;;;;;;;;5002502;28;20034;-73
2022/05/28 05:59:57;;;;;;;8.40;2.45;;;;;;;;;;5000446;28;20080;-72
2022/05/28 06:02:22;;;;;;;8.52;2.90;;;;;;;;;;4983089;28;20026;-74
2022/05/28 06:04:47;;;;;;;6.57;2.42;;;;;;;;;;4983518;28;20037;-73
2022/05/28 06:07:13;;;;;;;6.68;2.50;;;;;;;;;;5003954;28;20025;-74
2022/05/28 06:09:38;;;;;;;6.45;2.80;;;;;;;;;;5010635;28;20037;-75
2022/05/28 06:12:04;;;;;;;9.60;3.10;;;;;;;;;;5007329;28;20064;-70
2022/05/28 06:14:29;;;;;;;6.90;2.67;;;;;;;;;;5015578;28;20030;-69
2022/05/28 06:16:54;;;;;;;10.63;2.95;;;;;;;;;;5007600;28;20032;-71
2022/05/28 06:19:20;;;;;;;8.00;2.53;;;;;;;;;;5014697;28;20034;-72
2022/05/28 06:21:45;;;;;;;7.28;2.78;;;;;;;;;;4983165;28;20026;-70
2022/05/28 06:24:10;;;;;;;6.75;3.60;;;;;;;;;;4961800;28;20018;-70
2022/05/28 06:26:37;;;;;;;7.72;2.83;;;;;;;;;;4990580;28;20061;-72
2022/05/28 06:29:02;;;;;;;7.85;2.90;;;;;;;;;;5000403;28;20032;-72
2022/05/28 06:31:28;;;;;;;5.85;2.80;;;;;;;;;;4998000;28;20041;-70
2022/05/28 06:33:53;;;;;;;9.45;2.90;;;;;;;;;;4982148;28;20057;-71
2022/05/28 06:36:18;;;;;;;6.90;3.03;;;;;;;;;;4959574;28;20019;-72
2022/05/28 06:38:45;;;;;;;9.90;3.10;;;;;;;;;;4961715;28;20048;-72
2022/05/28 06:41:11;;;;;;;7.57;3.42;;;;;;;;;;4975495;28;20080;-71
2022/05/28 06:43:37;;;;;;;7.93;3.10;;;;;;;;;;4981631;28;20158;-72
2022/05/28 06:46:06;;;;;;;11.85;3.15;;;;;;;;;;4958589;28;20422;-71
2022/05/28 06:48:31;;;;;;;7.15;3.33;;;;;;;;;;4957048;28;20454;-75
2022/05/28 06:51:02;;;;;;;5.50;3.10;;;;;;;;;;4958627;28;20038;-75
2022/05/28 06:53:37;;;;;;;6.13;2.80;;;;;;;;;;4969382;28;20030;-76
2022/05/28 06:56:03;;;;;;;6.47;3.20;;;;;;;;;;4998405;28;20053;-72
2022/05/28 06:58:29;;;;;;;7.03;2.92;;;;;;;;;;4998305;28;20025;-72
2022/05/28 07:00:54;;;;;;;6.70;3.45;;;;;;;;;;4975869;28;20108;-74
2022/05/28 07:03:21;;;;;;;4.38;2.78;;;;;;;;;;4988681;28;20094;-72
2022/05/28 07:05:46;;;;;;;10.90;3.67;;;;;;;;;;5015478;28;20037;-73
2022/05/28 07:08:12;;;;;;;5.70;2.63;;;;;;;;;;4997637;28;20022;-77
2022/05/28 07:10:41;;;;;;;8.05;2.80;;;;;;;;;;5008091;28;20017;-76
2022/05/28 07:13:07;;;;;;;7.28;2.97;;;;;;;;;;4992073;28;20523;-72
2022/05/28 07:15:32;;;;;;;6.00;3.28;;;;;;;;;;4989991;28;20116;-76
2022/05/28 07:17:57;;;;;;;9.48;2.78;;;;;;;;;;4990562;28;20033;-72
2022/05/28 07:20:23;;;;;;;5.97;3.10;;;;;;;;;;4990593;28;20116;-74
2022/05/28 07:22:48;;;;;;;7.00;2.33;;;;;;;;;;4985154;28;20037;-75
2022/05/28 07:25:13;;;;;;;9.48;2.60;;;;;;;;;;4990680;28;20018;-73
2022/05/28 07:27:39;;;;;;;6.57;2.00;;;;;;;;;;4972767;28;20026;-71
2022/05/28 07:30:04;;;;;;;10.88;2.92;;;;;;;;;;4999939;28;20413;-75
2022/05/28 07:32:30;;;;;;;7.88;2.42;;;;;;;;;;5004066;28;20045;-72
2022/05/28 07:34:56;;;;;;;6.00;2.33;;;;;;;;;;5002774;28;20451;-71
2022/05/28 07:37:22;;;;;;;6.43;1.98;;;;;;;;;;4988685;28;20042;-71
2022/05/28 07:39:47;;;;;;;9.35;2.67;;;;;;;;;;4997396;28;20029;-71
2022/05/28 07:42:13;;;;;;;6.60;2.65;;;;;;;;;;4997464;28;20446;-77
2022/05/28 07:44:39;;;;;;;7.53;2.08;;;;;;;;;;4992580;28;20033;-72
2022/05/28 07:47:05;;;;;;;6.60;2.50;;;;;;;;;;5005425;28;20037;-73
2022/05/28 07:49:30;;;;;;;5.55;2.33;;;;;;;;;;5005284;28;20065;-72
2022/05/28 07:51:56;;;;;;;8.13;2.28;;;;;;;;;;5009401;28;20080;-73
2022/05/28 07:54:21;;;;;;;8.18;2.60;;;;;;;;;;5014777;28;20033;-71
2022/05/28 07:56:46;;;;;;;6.43;2.60;;;;;;;;;;5000855;28;20048;-71
2022/05/28 07:59:12;;;;;;;5.68;2.00;;;;;;;;;;4986901;28;20084;-75
2022/05/28 08:01:39;;;;;;;7.25;3.00;;;;;;;;;;4987745;28;20121;-72
2022/05/28 08:04:05;;;;;;;6.85;2.40;;;;;;;;;;4993080;28;20408;-71
2022/05/28 08:06:33;;;;;;;6.40;2.50;;;;;;;;;;5002521;28;20088;-70
2022/05/28 08:08:59;;;;;;;5.38;2.33;;;;;;;;;;5000809;28;20133;-72
2022/05/28 08:11:24;;;;;;;7.78;2.35;;;;;;;;;;5001470;28;20466;-70
2022/05/28 08:13:51;;;;;;;6.63;2.08;;;;;;;;;;5002753;28;20445;-71
2022/05/28 08:16:16;;;;;;;4.50;1.98;;;;;;;;;;5001881;28;20037;-69
2022/05/28 08:18:41;;;;;;;6.25;2.40;;;;;;;;;;5001019;28;20018;-70
2022/05/28 08:23:51;;;;;;;4.70;2.40;;;;;;;;;;4993139;28;20037;-75
2022/05/28 08:26:19;;;;;;;6.85;2.60;;;;;;;;;;4995632;28;20413;-73
2022/05/28 08:28:46;;;;;;;7.28;2.65;;;;;;;;;;4988867;28;20794;-72
2022/05/28 08:31:11;;;;;;;6.43;2.20;;;;;;;;;;4987374;28;20033;-74
2022/05/28 08:33:37;;;;;;;4.18;2.33;;;;;;;;;;4993120;28;20043;-73
2022/05/28 08:36:02;;;;;;;7.43;2.10;;;;;;;;;;5001057;28;20022;-75
2022/05/28 08:38:28;;;;;;;7.45;2.88;;;;;;;;;;4990734;28;20026;-72
2022/05/28 08:40:53;;;;;;;3.13;2.08;;;;;;;;;;5000596;28;20044;-72
2022/05/28 08:43:19;;;;;;;6.30;2.10;;;;;;;;;;5000379;28;20040;-72
2022/05/28 08:45:48;;;;;;;6.00;2.35;;;;;;;;;;5000388;28;20353;-72
2022/05/28 08:48:16;;;;;;;6.20;2.13;;;;;;;;;;4986052;28;20053;-73
2022/05/28 08:51:05;;;;;;;4.93;2.37;;;;;;;;;;4985983;28;20144;-73
2022/05/28 08:53:34;;;;;;;3.15;1.70;;;;;;;;;;4971902;28;20048;-74
2022/05/28 08:56:00;;;;;;;4.93;1.90;;;;;;;;;;4983451;28;20074;-71
2022/05/28 08:58:27;;;;;;;6.22;1.98;;;;;;;;;;4986401;28;20022;-71
2022/05/28 09:00:58;;;;;;;7.03;1.85;;;;;;;;;;5000804;28;20425;-75
2022/05/28 09:03:24;;;;;;;5.68;1.77;;;;;;;;;;5000214;28;20030;-74
2022/05/28 09:05:57;;;;;;;4.93;1.70;;;;;;;;;;5001602;28;20030;-71
2022/05/28 09:08:43;;;;;;;3.10;1.83;;;;;;;;;;5000842;28;20761;-72
2022/05/28 09:11:14;;;;;;;6.28;1.92;;;;;;;;;;5000114;28;20042;-73
2022/05/28 09:13:47;;;;;;;7.05;2.00;;;;;;;;;;5000911;28;20034;-72
2022/05/28 09:16:29;;;;;;;3.53;2.10;;;;;;;;;;5000918;28;20033;-74
2022/05/28 09:18:55;;;;;;;9.32;2.20;;;;;;;;;;4996564;28;20025;-74
2022/05/28 09:21:23;;;;;;;6.82;2.30;;;;;;;;;;4986516;28;20026;-72
2022/05/28 09:23:57;;;;;;;3.70;1.97;;;;;;;;;;4983297;28;20278;-73
2022/05/28 09:26:30;;;;;;;3.45;1.67;;;;;;;;;;4985076;28;20125;-74
2022/05/28 09:29:19;;;;;;;5.45;2.08;;;;;;;;;;4997406;28;20029;-75
2022/05/28 09:31:44;;;;;;;4.25;2.28;;;;;;;;;;4989668;28;20037;-72
2022/05/28 09:34:26;;;;;;;5.77;2.70;;;;;;;;;;4993885;28;20037;-77
2022/05/28 09:37:13;;;;;;;7.45;2.22;;;;;;;;;;4987585;28;20722;-73
2022/05/28 09:39:52;;;;;;;3.45;1.73;;;;;;;;;;4986123;28;20025;-75
2022/05/28 09:42:17;;;;;;;;;;;;;;;;;;4988602;28;20441;-75
2022/05/28 09:44:46;;;;;;;4.93;2.13;;;;;;;;;;5001801;28;19906;-75
2022/05/28 09:47:17;;;;;;;5.93;2.10;;;;;;;;;;4989843;28;20465;-73
2022/05/28 09:49:56;;;;;;;6.43;2.30;;;;;;;;;;4986025;28;20036;-77
2022/05/28 09:52:26;;;;;;;4.45;2.30;;;;;;;;;;4985047;28;20415;-77
2022/05/28 09:54:52;;;;;;;7.47;2.78;;;;;;;;;;4984639;28;20457;-72
2022/05/28 09:57:22;;;;;;;8.45;2.53;;;;;;;;;;4986579;28;20041;-76
2022/05/28 10:00:08;;;;;;;3.58;1.80;;;;;;;;;;4991418;28;20030;-72
2022/05/28 10:05:42;;;;;;;5.03;2.22;;;;;;;;;;4966409;28;20060;-72
2022/05/28 10:08:09;;;;;;;6.88;2.40;;;;;;;;;;4985392;28;20026;-76
2022/05/28 10:10:39;;;;;;;3.58;1.90;;;;;;;;;;4984922;28;20041;-73
2022/05/28 10:13:13;;;;;;;3.60;1.85;;;;;;;;;;4984301;28;20041;-72
2022/05/28 10:15:43;;;;;;;5.05;2.15;;;;;;;;;;4984197;28;20025;-72
2022/05/28 10:18:11;;;;;;;5.18;2.20;;;;;;;;;;4987547;28;20037;-73
2022/05/28 10:20:36;;;;;;;8.48;2.40;;;;;;;;;;4984913;28;20053;-71
2022/05/28 10:23:07;;;;;;;4.97;1.95;;;;;;;;;;4987107;28;20119;-75
2022/05/28 10:25:48;;;;;;;4.28;2.38;;;;;;;;;;4996904;28;20022;-72
2022/05/28 10:28:14;;;;;;;6.88;2.38;;;;;;;;;;5002507;28;20083;-74
2022/05/28 10:30:41;;;;;;;6.22;2.40;;;;;;;;;;5003511;28;20117;-73
2022/05/28 10:33:26;;;;;;;11.68;3.67;;;;;;;;;;5001713;28;20109;-72
2022/05/28 10:35:52;;;;;;;4.30;2.70;;;;;;;;;;5001495;28;20473;-73
2022/05/28 10:38:25;;;;;;;6.20;2.25;;;;;;;;;;4998219;28;20065;-72
2022/05/28 10:40:50;;;;;;;5.18;2.20;;;;;;;;;;4994929;28;20022;-73
2022/05/28 10:43:19;;;;;;;5.90;2.30;;;;;;;;;;4990697;28;20044;-73
2022/05/28 10:45:46;;;;;;;6.18;2.03;;;;;;;;;;5003731;28;20402;-75
2022/05/28 10:48:24;;;;;;;4.97;2.25;;;;;;;;;;5003803;28;20738;-74
2022/05/28 10:51:01;;;;;;;6.18;2.95;;;;;;;;;;5003667;28;20736;-73
2022/05/28 10:53:42;;;;;;;11.30;3.37;;;;;;;;;;5002784;28;20037;-72
2022/05/28 10:56:26;;;;;;;5.80;2.33;;;;;;;;;;5007125;28;20053;-74
2022/05/28 10:59:12;;;;;;;6.03;2.05;;;;;;;;;;5012753;28;20030;-73
2022/05/28 11:01:38;;;;;;;5.07;2.05;;;;;;;;;;5009513;28;20021;-71
2022/05/28 11:04:07;;;;;;;5.32;2.60;;;;;;;;;;5006230;28;20084;-74
2022/05/28 11:06:48;;;;;;;6.65;2.15;;;;;;;;;;4991275;28;20022;-75
2022/05/28 11:09:28;;;;;;;6.60;2.42;;;;;;;;;;5006126;28;20464;-73
2022/05/28 11:12:00;;;;;;;5.70;2.10;;;;;;;;;;5010740;28;20707;-74
2022/05/28 11:14:48;;;;;;;4.15;2.33;;;;;;;;;;5013940;28;20040;-75
2022/05/28 11:17:26;;;;;;;4.55;2.67;;;;;;;;;;5015527;28;20096;-74
2022/05/28 11:19:52;;;;;;;;;;;;;;;;;;5013053;28;20048;-73
2022/05/28 11:22:23;;;;;;;5.70;2.90;;;;;;;;;;5014673;28;19913;-74
2022/05/28 11:25:04;;;;;;;6.63;2.58;;;;;;;;;;5012420;28;20065;-72
2022/05/28 11:27:42;;;;;;;5.85;2.33;;;;;;;;;;5014169;28;20103;-72
2022/05/28 11:30:11;;;;;;;9.95;2.13;;;;;;;;;;4997914;28;20421;-73
2022/05/28 11:32:57;;;;;;;4.57;2.03;;;;;;;;;;5014919;28;20052;-76
2022/05/28 11:35:33;;;;;;;5.85;2.88;;;;;;;;;;4985331;28;20034;-73
2022/05/28 11:38:17;;;;;;;3.83;2.47;;;;;;;;;;5015661;28;20025;-72
2022/05/28 11:41:03;;;;;;;7.95;3.40;;;;;;;;;;5009092;28;20092;-74
2022/05/28 11:43:37;;;;;;;6.40;2.40;;;;;;;;;;5010182;28;20038;-72
2022/05/28 11:46:08;;;;;;;6.20;2.85;;;;;;;;;;5012305;28;20051;-70
2022/05/28 11:51:39;;;;;;;4.65;2.20;;;;;;;;;;4984932;28;20032;-72
2022/05/28 11:54:13;;;;;;;5.63;2.90;;;;;;;;;;5003764;28;20057;-71
2022/05/28 11:56:38;;;;;;;4.53;2.40;;;;;;;;;;5001600;28;20541;-73
2022/05/28 11:59:07;;;;;;;3.80;2.65;;;;;;;;;;5000336;28;20025;-72
2022/05/28 12:01:41;;;;;;;7.80;3.83;;;;;;;;;;4989539;28;20041;-71
2022/05/28 12:04:06;;;;;;;7.30;2.78;;;;;;;;;;4985162;28;20038;-72
2022/05/28 12:06:34;;;;;;;7.72;3.17;;;;;;;;;;4992269;28;20026;-71
2022/05/28 12:09:08;;;;;;;7.20;2.85;;;;;;;;;;4991742;28;20026;-74
2022/05/28 12:11:36;;;;;;;6.25;2.83;;;;;;;;;;4982429;28;20029;-72
2022/05/28 12:14:03;;;;;;;7.45;2.83;;;;;;;;;;4983663;28;20057;-72
2022/05/28 12:16:40;;;;;;;9.27;3.33;;;;;;;;;;4986237;28;20136;-73
2022/05/28 12:19:18;;;;;;;9.20;3.97;;;;;;;;;;4986731;28;20042;-74
2022/05/28 12:21:45;;;;;;;9.82;3.70;;;;;;;;;;4988260;28;20038;-72
2022/05/28 12:24:10;;;;;;;7.22;2.80;;;;;;;;;;4986492;28;20117;-74
2022/05/28 12:29:29;;;;;;;12.25;2.90;;;;;;;;;;4987296;28;20094;-73
2022/05/28 12:31:55;;;;;;;8.18;4.00;;;;;;;;;;4986859;28;20045;-74
2022/05/28 12:34:22;;;;;;;6.82;3.63;;;;;;;;;;4975945;28;20036;-74
2022/05/28 12:36:49;;;;;;;7.20;3.45;;;;;;;;;;4987682;28;20750;-72
2022/05/28 12:39:21;;;;;;;10.65;3.78;;;;;;;;;;4986690;28;20088;-77
2022/05/28 12:41:53;;;;;;;10.38;3.53;;;;;;;;;;4987272;28;20026;-73
2022/05/28 12:44:22;;;;;;;10.45;4.07;;;;;;;;;;4985158;28;20411;-72
2022/05/28 12:46:50;;;;;;;11.45;3.10;;;;;;;;;;4986320;28;20041;-71
2022/05/28 12:49:19;;;;;;;5.75;3.13;;;;;;;;;;4985579;28;20024;-73
2022/05/28 12:51:44;;;;;;;4.85;2.72;;;;;;;;;;4986131;28;20050;-72
2022/05/28 12:54:10;;;;;;;6.23;3.10;;;;;;;;;;4986527;28;20091;-72
2022/05/28 12:56:36;;;;;;;4.82;3.13;;;;;;;;;;4988828;28;20860;-71
2022/05/28 12:59:07;;;;;;;8.25;2.83;;;;;;;;;;4992941;28;20041;-72
2022/05/28 13:01:34;;;;;;;5.05;3.15;;;;;;;;;;5012065;28;20029;-71
2022/05/28 13:04:04;;;;;;;4.68;3.00;;;;;;;;;;5013932;28;20227;-71
2022/05/28 13:06:43;;;;;;;7.28;2.92;;;;;;;;;;4998899;28;24066;-75
2022/05/28 13:09:10;;;;;;;4.32;2.78;;;;;;;;;;5013734;28;20057;-73
2022/05/28 13:11:40;;;;;;;9.02;3.72;;;;;;;;;;5015178;28;20130;-70
2022/05/28 13:14:25;;;;;;;5.68;3.38;;;;;;;;;;5016140;28;20029;-71
2022/05/28 13:17:00;;;;;;;5.82;2.97;;;;;;;;;;4996244;28;20021;-74
2022/05/28 13:19:34;;;;;;;4.90;3.20;;;;;;;;;;4990291;28;20029;-74
2022/05/28 13:22:03;;;;;;;6.28;3.15;;;;;;;;;;4981376;28;20030;-75
2022/05/28 13:24:47;;;;;;;6.05;3.58;;;;;;;;;;5006841;28;20033;-71
2022/05/28 13:27:12;;;;;;;8.90;4.10;;;;;;;;;;4995636;28;20028;-71
2022/05/28 13:29:59;;;;;;;6.07;4.07;;;;;;;;;;5012581;28;20030;-72
2022/05/28 13:32:28;;;;;;;7.07;3.97;;;;;;;;;;4975700;28;20760;-72
2022/05/28 13:35:05;;;;;;;6.53;4.85;;;;;;;;;;4993482;28;20030;-72
2022/05/28 13:37:30;;;;;;;9.00;4.70;;;;;;;;;;4997077;28;20089;-73
2022/05/28 13:39:56;;;;;;;8.55;4.95;;;;;;;;;;5010671;28;20441;-71
2022/05/28 13:42:22;;;;;;;6.85;5.03;;;;;;;;;;5001470;28;20044;-71
2022/05/28 13:44:48;;;;;;;5.75;5.07;;;;;;;;;;4996269;28;20045;-73
2022/05/28 13:47:15;;;;;;;10.57;5.15;;;;;;;;;;5013193;28;20306;-71
2022/05/28 13:49:41;;;;;;;6.72;4.85;;;;;;;;;;5014559;28;20060;-72
2022/05/28 13:52:10;;;;;;;8.05;5.50;;;;;;;;;;4998264;28;20041;-72
2022/05/28 13:54:35;;;;;;;8.95;5.95;;;;;;;;;;4990796;28;20061;-75
2022/05/28 13:57:05;;;;;;;7.03;5.88;;;;;;;;;;4990029;28;20429;-76
2022/05/28 13:59:36;;;;;;;7.22;5.82;;;;;;;;;;4993607;28;20085;-72
2022/05/28 14:02:02;;;;;;;8.65;6.55;;;;;;;;;;4990947;28;20045;-73
2022/05/28 14:04:32;;;;;;;8.90;6.95;;;;;;;;;;4992389;28;20118;-73
2022/05/28 14:07:02;;;;;;;8.05;7.10;;;;;;;;;;4985617;28;20030;-75
2022/05/28 14:09:30;;;;;;;8.43;7.00;;;;;;;;;;5005296;28;20103;-72
2022/05/28 14:11:56;;;;;;;10.17;7.73;;;;;;;;;;5014321;28;20149;-73
2022/05/28 14:14:26;;;;;;;10.00;9.00;;;;;;;;;;5018449;28;20116;-73
2022/05/28 14:17:00;;;;;;;12.85;9.32;;;;;;;;;;5015925;28;20033;-73
2022/05/28 14:19:27;;;;;;;13.63;9.82;;;;;;;;;;4998771;28;20032;-72
2022/05/28 14:21:54;;;;;;;11.65;9.88;;;;;;;;;;4993491;28;20026;-71
2022/05/28 14:24:25;;;;;;;14.82;10.40;;;;;;;;;;4995796;28;20346;-75
2022/05/28 14:26:51;;;;;;;12.45;11.07;;;;;;;;;;5001008;28;20171;-72
2022/05/28 14:29:18;;;;;;;16.05;10.75;;;;;;;;;;5008019;28;20044;-76
2022/05/28 14:31:44;;;;;;;13.40;11.57;;;;;;;;;;4999188;28;20353;-71
2022/05/28 14:34:10;;;;;;;16.80;11.90;;;;;;;;;;5006167;28;20041;-72
2022/05/28 14:36:37;;;;;;;12.95;11.18;;;;;;;;;;5012079;28;20348;-75
2022/05/28 14:39:10;;;;;;;15.73;12.98;;;;;;;;;;5003981;28;20109;-72
2022/05/28 14:41:35;;;;;;;15.02;13.02;;;;;;;;;;4992323;28;20044;-72
2022/05/28 14:44:01;;;;;;;16.73;13.52;;;;;;;;;;5003414;28;20034;-75
2022/05/28 14:46:29;;;;;;;17.67;15.48;;;;;;;;;;5000353;28;20441;-73
2022/05/28 14:49:00;;;;;;;16.07;14.20;;;;;;;;;;4990467;28;20346;-71
2022/05/28 14:51:27;;;;;;;16.85;15.00;;;;;;;;;;5000806;28;20017;-74
2022/05/28 14:53:53;;;;;;;20.42;16.50;;;;;;;;;;4994715;28;20036;-75
2022/05/28 14:56:18;;;;;;;19.85;16.10;;;;;;;;;;4983857;28;20460;-74
2022/05/28 14:58:45;;;;;;;17.80;15.50;;;;;;;;;;4982508;28;20108;-73
2022/05/28 15:01:10;;;;;;;20.92;16.02;;;;;;;;;;4989050;28;20430;-73
2022/05/28 15:03:36;;;;;;;19.15;15.60;;;;;;;;;;4988097;28;20066;-72